• Join FlightAware (Why Join?)
  • Login
  • US Flag 
04:28PM EDT


 

Airport Tracker/Info


-or-


 

Live Flight TrackerFlight Track Log ✈ UAL5881 ✈ 22-Apr-2013 ✈ KORD - KIND

Flight Track Log - Related Links

Times and Time Zones

All times are in EDT time to prevent confusion due to time zone crossing. See the UAL5881 flight status page for this flight to view local times or setup timezone preferences in your user account.

Time Position Orientation Groundspeed Altitude Reporting Facility
EDT Latitude Longitude Course Direction KTS MPH feet Rate Location/Type
09:14AM 41.9500 -87.9000 168° South 157 181 1,800  Level Chicago TRACON
09:15AM 41.9000 -87.8667 154° Southeast 201 231 4,200 1,380 Climbing Chicago TRACON
09:18AM 41.6791 -87.6838 157° South  Level Estimated
09:18AM 41.7686 -87.7856 155° Southeast 242 278 6,500  Level Chicago Center
09:19AM 41.6034 -87.6284 156° South  Level Estimated
09:19AM 41.7006 -87.7436 155° Southeast 264 304 9,100  Level Chicago Center
09:20AM 41.5191 -87.6036 168° South  Level FlightAware Approximate
09:20AM 41.6153 -87.6908 155° Southeast 281 323 11,900  Level Chicago Center
09:21AM 41.5422 -87.6444 155° Southeast 289 333 13,900 1,500 Climbing Chicago Center
09:22AM 41.4650 -87.5975 156° South 299 344 15,000 480 Climbing Chicago Center
09:23AM 41.3697 -87.5644 165° South 357 411 15,000  Level Chicago Center
09:24AM 41.2664 -87.5453 172° South 371 427 15,000 -60 Level Chicago Center
09:25AM 41.1633 -87.5236 171° South 375 432 14,900  Descending Chicago Center
09:26AM 41.0639 -87.4975 169° South 367 422 15,000  Climbing Chicago Center
09:27AM 40.9492 -87.4664 168° South 354 407 14,900  Descending Chicago Center
09:28AM 40.8533 -87.4411 169° South 351 404 15,100  Climbing Chicago Center
09:29AM 40.7581 -87.4169 169° South 350 403 15,000 -60 Descending Chicago Center
09:30AM 40.6647 -87.3922 169° South 346 398 15,000  Level Chicago Center
09:31AM 40.5708 -87.3667 168° South 346 398 15,000  Level Chicago Center
09:32AM 40.4578 -87.3342 168° South 346 398 15,100 -480 Climbing Chicago Center
09:33AM 40.3911 -87.2386 132° Southeast 362 417 14,100 -960 Descending Chicago Center
09:34AM 40.3278 -87.1372 129° Southeast 359 413 13,100 -540 Descending Chicago Center
09:35AM 40.2625 -87.0314 129° Southeast 371 427 13,100  Level Chicago Center
09:36AM 40.1964 -86.9269 130° Southeast 375 432 13,100 -60 Level Chicago Center
09:37AM 40.1308 -86.8269 131° Southeast 365 420 13,000 -240 Descending Chicago Center
09:38AM 40.0586 -86.7197 131° Southeast 345 397 12,700 -840 Descending Chicago Center
09:39AM 40.0097 -86.6489 132° Southeast 331 381 11,400 -2,220 Descending Indianapolis Center
09:40AM 39.9589 -86.5742 132° Southeast 299 344 8,400 -2,160 Descending Indianapolis Center
09:41AM 39.9078 -86.5008 132° Southeast 285 328 7,000 -1,020 Descending Indianapolis Center
09:42AM 39.8278 -86.4631 160° South 265 305 6,400 -720 Descending Indianapolis Center
09:43AM 39.7742 -86.4489 169° South 254 292 5,600 -1,260 Descending Indianapolis Center
09:46AM 39.6833 -86.3500 140° Southeast 134 154 2,200 -1,380 Descending Indianapolis TRACON
09:47AM 39.7000 -86.3000 67° East 133 153 1,000 -1,200 Descending Indianapolis TRACON